createdAt,value
2019-02-03T00:00:25.589Z,110.25
2019-02-03T00:01:29.180Z,105.35
2019-02-03T00:02:32.620Z,110.97
2019-02-03T00:03:36.115Z,103.62
2019-02-03T00:04:39.710Z,99.65
2019-02-03T00:05:43.265Z,105.70
2019-02-03T00:06:46.790Z,94.52
2019-02-03T00:07:50.295Z,100.90
2019-02-03T00:08:53.728Z,96.02
2019-02-03T00:09:57.240Z,94.25
2019-02-03T00:11:01.024Z,110.03
2019-02-03T00:12:04.790Z,109.48
2019-02-03T00:13:08.311Z,95.80
2019-02-03T00:14:11.774Z,101.05
2019-02-03T00:15:15.344Z,98.47
2019-02-03T00:16:18.846Z,92.05
2019-02-03T00:17:22.308Z,95.90
2019-02-03T00:18:25.847Z,101.18
2019-02-03T00:19:29.348Z,104.03
2019-02-03T00:20:32.839Z,99.28
2019-02-03T00:21:36.271Z,98.05
2019-02-03T00:22:39.869Z,102.97
2019-02-03T00:23:43.331Z,100.58
2019-02-03T00:24:46.770Z,102.60
2019-02-03T00:25:50.292Z,106.50
2019-02-03T00:26:54.010Z,96.02
2019-02-03T00:27:57.543Z,101.07
2019-02-03T00:29:01.013Z,98.00
2019-02-03T00:30:07.630Z,107.65
2019-02-03T00:31:11.066Z,99.10
2019-02-03T00:32:14.509Z,109.70
2019-02-03T00:33:18.041Z,104.72
2019-02-03T00:34:21.482Z,107.20
2019-02-03T00:35:25.027Z,104.67
2019-02-03T00:36:28.451Z,98.72
2019-02-03T00:37:31.906Z,97.62
2019-02-03T00:38:35.422Z,101.47
2019-02-03T00:39:38.893Z,104.12
2019-02-03T00:40:42.325Z,105.40
2019-02-03T00:41:46.046Z,107.70
2019-02-03T00:42:49.768Z,100.50
2019-02-03T00:43:53.227Z,95.53
2019-02-03T00:44:56.659Z,95.67
2019-02-03T00:46:00.097Z,96.40
2019-02-03T00:47:03.603Z,95.35
2019-02-03T00:48:07.041Z,90.70
2019-02-03T00:49:10.505Z,84.20
2019-02-03T00:50:15.932Z,93.50
2019-02-03T00:51:19.432Z,86.45
2019-02-03T00:52:22.868Z,92.97
2019-02-03T00:53:26.455Z,85.53
2019-02-03T00:54:29.903Z,87.45
2019-02-03T00:55:33.334Z,90.80
2019-02-03T00:56:36.758Z,90.95
2019-02-03T00:57:40.551Z,88.22
2019-02-03T00:58:44.043Z,91.85
2019-02-03T00:59:47.572Z,97.10
2019-02-03T01:00:51.175Z,86.97
2019-02-03T01:01:54.735Z,86.20
2019-02-03T01:02:58.233Z,83.65
2019-02-03T01:04:01.738Z,84.72
2019-02-03T01:05:08.366Z,84.17
2019-02-03T01:06:11.959Z,93.60
2019-02-03T01:07:26.854Z,85.12
2019-02-03T01:08:20.762Z,89.15
2019-02-03T01:09:24.270Z,88.47
2019-02-03T01:10:27.897Z,81.17
2019-02-03T01:11:31.581Z,81.25
2019-02-03T01:12:35.016Z,87.40
2019-02-03T01:13:38.727Z,91.15
2019-02-03T01:14:42.157Z,87.92
2019-02-03T01:15:45.606Z,88.47
2019-02-03T01:16:49.196Z,80.05
2019-02-03T01:17:52.769Z,83.90
2019-02-03T01:18:56.290Z,79.82
2019-02-03T01:19:59.836Z,88.58
2019-02-03T01:21:03.358Z,83.60
2019-02-03T01:22:06.773Z,79.92
2019-02-03T01:23:10.367Z,89.58
2019-02-03T01:24:13.865Z,91.17
2019-02-03T01:25:17.515Z,89.20
2019-02-03T01:26:21.036Z,82.60
2019-02-03T01:27:24.539Z,84.15
2019-02-03T01:28:28.244Z,90.60
2019-02-03T01:29:31.677Z,86.57
2019-02-03T01:30:35.181Z,90.57
2019-02-03T01:31:38.702Z,83.15
2019-02-03T01:32:42.270Z,84.13
2019-02-03T01:33:45.702Z,95.45
2019-02-03T01:34:49.134Z,86.10
2019-02-03T01:35:52.565Z,87.62
2019-02-03T01:36:56.095Z,84.42
2019-02-03T01:37:59.602Z,89.65
2019-02-03T01:39:04.069Z,93.70
2019-02-03T01:40:16.491Z,92.17
2019-02-03T01:41:19.919Z,88.82
2019-02-03T01:42:23.446Z,82.57
2019-02-03T01:43:26.901Z,91.67
2019-02-03T01:44:30.334Z,86.65
2019-02-03T01:45:34.111Z,94.60
2019-02-03T01:46:37.555Z,90.60
2019-02-03T01:47:41.137Z,99.37
2019-02-03T01:48:44.588Z,91.85
2019-02-03T01:49:48.045Z,93.78
2019-02-03T01:50:51.477Z,108.80
2019-02-03T01:51:54.911Z,84.13
2019-02-03T01:52:58.426Z,87.57
2019-02-03T01:54:01.855Z,90.67
2019-02-03T01:55:08.635Z,88.37
2019-02-03T01:56:12.066Z,92.25
2019-02-03T01:57:15.514Z,84.07
2019-02-03T01:58:18.988Z,87.35
2019-02-03T01:59:22.401Z,89.00
2019-02-03T02:00:28.348Z,89.47
2019-02-03T02:01:32.067Z,101.07
2019-02-03T02:02:35.571Z,86.10
2019-02-03T02:03:39.035Z,85.57
2019-02-03T02:04:42.512Z,84.28
2019-02-03T02:05:46.025Z,90.07
2019-02-03T02:06:49.457Z,94.28
2019-02-03T02:07:53.032Z,83.97
2019-02-03T02:08:56.481Z,93.87
2019-02-03T02:09:59.929Z,83.92
2019-02-03T02:11:03.358Z,83.35
2019-02-03T02:12:06.966Z,93.58
2019-02-03T02:13:10.471Z,78.78
2019-02-03T02:14:13.990Z,86.80
2019-02-03T02:15:19.139Z,88.30
2019-02-03T02:16:22.909Z,80.35
2019-02-03T02:17:26.419Z,81.08
2019-02-03T02:18:29.853Z,85.28
2019-02-03T02:19:33.307Z,85.83
2019-02-03T02:20:36.876Z,92.37
2019-02-03T02:21:40.385Z,80.50
2019-02-03T02:22:43.957Z,87.62
2019-02-03T02:23:47.401Z,83.25
2019-02-03T02:24:50.845Z,82.70
2019-02-03T02:25:54.297Z,86.08
2019-02-03T02:26:57.807Z,77.17
2019-02-03T02:28:01.305Z,82.60
2019-02-03T02:29:04.981Z,85.90
2019-02-03T02:30:16.904Z,80.83
2019-02-03T02:31:20.447Z,80.15
2019-02-03T02:32:24.132Z,85.45
2019-02-03T02:33:27.566Z,88.92
2019-02-03T02:34:31.000Z,80.00
2019-02-03T02:35:34.465Z,90.83
2019-02-03T02:36:37.891Z,86.80
2019-02-03T02:37:41.505Z,92.50
2019-02-03T02:38:44.942Z,87.08
2019-02-03T02:39:48.376Z,85.47
2019-02-03T02:40:51.884Z,79.47
2019-02-03T02:41:55.323Z,84.32
2019-02-03T02:42:58.767Z,89.80
2019-02-03T02:44:02.189Z,82.85
2019-02-03T02:45:08.368Z,77.45
2019-02-03T02:46:11.914Z,92.90
2019-02-03T02:47:15.739Z,78.90
2019-02-03T02:48:19.153Z,74.77
2019-02-03T02:49:22.592Z,83.07
2019-02-03T02:50:37.366Z,88.07
2019-02-03T02:51:40.921Z,79.35
2019-02-03T02:52:44.429Z,85.72
2019-02-03T02:53:47.865Z,86.00
2019-02-03T02:54:51.310Z,81.28
2019-02-03T02:55:54.747Z,77.58
2019-02-03T02:56:58.199Z,83.10
2019-02-03T02:58:01.803Z,79.00
2019-02-03T02:59:05.371Z,87.57
2019-02-03T03:00:11.851Z,80.42
2019-02-03T03:01:15.361Z,87.37
2019-02-03T03:02:18.812Z,86.67
2019-02-03T03:03:22.312Z,80.05
2019-02-03T03:04:25.818Z,87.57
2019-02-03T03:05:29.694Z,81.72
2019-02-03T03:06:33.197Z,90.57
2019-02-03T03:07:36.857Z,75.47
2019-02-03T03:08:40.322Z,85.45
2019-02-03T03:09:43.754Z,77.30
2019-02-03T03:10:47.176Z,80.28
2019-02-03T03:11:50.606Z,75.40
2019-02-03T03:12:54.196Z,82.22
2019-02-03T03:13:57.694Z,75.90
2019-02-03T03:15:01.209Z,79.20
2019-02-03T03:16:05.004Z,75.03
2019-02-03T03:17:08.445Z,86.10
2019-02-03T03:18:11.913Z,77.12
2019-02-03T03:19:15.406Z,88.85
2019-02-03T03:20:22.563Z,78.30
2019-02-03T03:21:26.365Z,74.65
2019-02-03T03:22:29.792Z,83.00
2019-02-03T03:23:33.245Z,78.95
2019-02-03T03:24:36.770Z,81.22
2019-02-03T03:25:40.273Z,81.65
2019-02-03T03:26:43.701Z,79.55
2019-02-03T03:27:47.217Z,82.55
2019-02-03T03:28:50.703Z,80.42
2019-02-03T03:29:54.136Z,75.50
2019-02-03T03:30:57.649Z,72.80
2019-02-03T03:32:01.189Z,73.67
2019-02-03T03:33:04.893Z,72.20
2019-02-03T03:34:08.385Z,78.02
2019-02-03T03:35:12.217Z,75.22
2019-02-03T03:36:15.934Z,75.22
2019-02-03T03:37:19.369Z,84.65
2019-02-03T03:38:31.796Z,77.60
2019-02-03T03:39:28.131Z,71.25
2019-02-03T03:40:31.739Z,71.17
2019-02-03T03:41:35.173Z,76.35
2019-02-03T03:42:38.605Z,81.25
2019-02-03T03:43:42.056Z,71.53
2019-02-03T03:44:45.577Z,77.72
2019-02-03T03:45:49.046Z,72.97
2019-02-03T03:46:52.558Z,78.92
2019-02-03T03:47:56.156Z,74.05
2019-02-03T03:48:59.607Z,74.15
2019-02-03T03:50:03.199Z,71.87
2019-02-03T03:51:07.051Z,73.40
2019-02-03T03:52:10.633Z,69.85
2019-02-03T03:53:14.141Z,68.75
2019-02-03T03:54:17.710Z,75.20
2019-02-03T03:55:21.259Z,71.70
2019-02-03T03:56:24.683Z,69.60
2019-02-03T03:57:28.106Z,74.10
2019-02-03T03:58:31.618Z,71.12
2019-02-03T03:59:35.037Z,76.35
2019-02-03T04:00:38.555Z,71.53
2019-02-03T04:01:42.143Z,71.95
2019-02-03T04:02:45.727Z,72.72
2019-02-03T04:03:49.305Z,70.95
2019-02-03T04:04:53.057Z,73.30
2019-02-03T04:05:56.953Z,78.07
2019-02-03T04:07:00.634Z,76.02
2019-02-03T04:08:04.386Z,75.65
2019-02-03T04:09:09.279Z,70.17
2019-02-03T04:10:15.260Z,72.80
2019-02-03T04:11:18.769Z,72.15
2019-02-03T04:12:22.341Z,71.53
2019-02-03T04:13:25.781Z,68.80
2019-02-03T04:14:29.286Z,68.42
2019-02-03T04:15:32.765Z,72.95
2019-02-03T04:16:36.307Z,73.12
2019-02-03T04:17:39.830Z,74.30
2019-02-03T04:18:43.266Z,68.25
2019-02-03T04:19:46.694Z,66.75
2019-02-03T04:20:50.647Z,72.92
2019-02-03T04:21:54.053Z,72.08
2019-02-03T04:22:57.644Z,73.33
2019-02-03T04:24:01.148Z,70.90
2019-02-03T04:25:06.753Z,72.10
2019-02-03T04:26:10.195Z,68.50
2019-02-03T04:27:13.655Z,72.17
2019-02-03T04:28:17.177Z,73.37
2019-02-03T04:29:20.676Z,70.85
2019-02-03T04:30:25.653Z,66.35
2019-02-03T04:31:29.086Z,62.05
2019-02-03T04:32:32.626Z,68.12
2019-02-03T04:33:36.059Z,66.25
2019-02-03T04:34:39.566Z,65.70
2019-02-03T04:35:43.256Z,64.50
2019-02-03T04:36:46.885Z,64.85
2019-02-03T04:37:50.487Z,67.12
2019-02-03T04:38:58.391Z,68.72
2019-02-03T04:39:59.151Z,65.40
2019-02-03T04:41:02.603Z,62.78
2019-02-03T04:42:06.174Z,61.85
2019-02-03T04:43:09.677Z,67.30
2019-02-03T04:44:13.159Z,60.75
2019-02-03T04:45:18.124Z,64.95
2019-02-03T04:46:21.603Z,61.50
2019-02-03T04:47:25.124Z,64.75
2019-02-03T04:48:28.642Z,65.22
2019-02-03T04:49:32.079Z,64.67
2019-02-03T04:50:35.618Z,58.95
2019-02-03T04:51:39.289Z,61.83
2019-02-03T04:52:42.810Z,61.83
2019-02-03T04:53:46.346Z,66.15
2019-02-03T04:54:49.793Z,59.77
2019-02-03T04:55:53.223Z,62.23
2019-02-03T04:56:56.816Z,61.33
2019-02-03T04:58:00.234Z,57.67
2019-02-03T04:59:03.838Z,63.80
2019-02-03T05:00:11.011Z,56.05
2019-02-03T05:01:14.475Z,55.50
2019-02-03T05:02:17.989Z,59.95
2019-02-03T05:03:21.451Z,58.65
2019-02-03T05:04:24.978Z,55.85
2019-02-03T05:05:28.421Z,57.67
2019-02-03T05:06:32.141Z,48.65
2019-02-03T05:07:35.872Z,58.50
2019-02-03T05:08:39.363Z,53.92
2019-02-03T05:09:42.898Z,55.35
2019-02-03T05:10:46.398Z,50.55
2019-02-03T05:11:49.905Z,51.30
2019-02-03T05:12:53.407Z,55.38
2019-02-03T05:13:56.878Z,54.77
2019-02-03T05:15:00.494Z,56.88
2019-02-03T05:16:04.174Z,51.63
2019-02-03T05:17:07.619Z,58.52
2019-02-03T05:18:11.194Z,54.90
2019-02-03T05:19:14.727Z,55.52
2019-02-03T05:20:20.414Z,52.67
2019-02-03T05:21:23.844Z,51.37
2019-02-03T05:22:27.655Z,50.85
2019-02-03T05:23:31.213Z,53.65
2019-02-03T05:24:34.743Z,50.65
2019-02-03T05:25:38.199Z,49.67
2019-02-03T05:26:41.706Z,48.20
2019-02-03T05:27:48.256Z,50.12
2019-02-03T05:28:51.713Z,42.88
2019-02-03T05:29:55.183Z,41.95
2019-02-03T05:30:58.612Z,49.95
2019-02-03T05:32:02.045Z,43.38
2019-02-03T05:33:05.701Z,43.13
2019-02-03T05:34:09.147Z,46.33
2019-02-03T05:35:12.818Z,46.95
2019-02-03T05:36:16.390Z,45.03
2019-02-03T05:37:20.110Z,48.87
2019-02-03T05:38:23.538Z,43.58
2019-02-03T05:39:27.060Z,39.80
2019-02-03T05:40:30.587Z,40.25
2019-02-03T05:41:34.208Z,41.88
2019-02-03T05:42:37.708Z,41.33
2019-02-03T05:43:41.187Z,38.60
2019-02-03T05:44:44.641Z,38.28
2019-02-03T05:45:48.116Z,42.38
2019-02-03T05:46:51.660Z,37.08
2019-02-03T05:47:55.137Z,36.35
2019-02-03T05:48:58.569Z,34.58
2019-02-03T05:50:02.251Z,31.00
2019-02-03T05:51:05.846Z,39.00
2019-02-03T05:52:09.648Z,35.58
2019-02-03T05:53:13.086Z,37.48
2019-02-03T05:54:16.602Z,36.42
2019-02-03T05:55:20.348Z,34.03
2019-02-03T05:56:23.867Z,35.92
2019-02-03T05:57:27.311Z,32.40
2019-02-03T05:58:30.734Z,36.77
2019-02-03T05:59:34.239Z,34.38
2019-02-03T06:00:39.307Z,33.63
2019-02-03T06:01:42.888Z,31.85
2019-02-03T06:02:46.365Z,34.20
2019-02-03T06:03:49.886Z,33.13
2019-02-03T06:04:53.297Z,36.25
2019-02-03T06:05:56.751Z,34.20
2019-02-03T06:07:00.481Z,30.37
2019-02-03T06:08:04.075Z,28.23
2019-02-03T06:09:07.972Z,36.75
2019-02-03T06:10:14.209Z,30.97
2019-02-03T06:11:17.655Z,30.27
2019-02-03T06:12:21.172Z,32.78
2019-02-03T06:13:24.617Z,33.98
2019-02-03T06:14:28.121Z,31.20
2019-02-03T06:15:31.697Z,28.52
2019-02-03T06:16:35.159Z,31.85
2019-02-03T06:17:38.650Z,29.87
2019-02-03T06:18:42.174Z,25.02
2019-02-03T06:19:45.710Z,31.48
2019-02-03T06:20:49.163Z,32.30
2019-02-03T06:21:52.827Z,27.30
2019-02-03T06:22:56.302Z,26.20
2019-02-03T06:23:59.781Z,29.72
2019-02-03T06:25:03.521Z,29.27
2019-02-03T06:26:07.006Z,25.90
2019-02-03T06:27:10.442Z,27.22
2019-02-03T06:28:13.940Z,25.92
2019-02-03T06:29:17.374Z,27.93
2019-02-03T06:30:23.866Z,28.40
2019-02-03T06:31:27.367Z,26.30
2019-02-03T06:32:30.863Z,26.07
2019-02-03T06:33:34.330Z,30.25
2019-02-03T06:34:37.833Z,27.98
2019-02-03T06:35:41.257Z,29.50
2019-02-03T06:36:44.709Z,24.72
2019-02-03T06:37:48.497Z,24.50
2019-02-03T06:38:52.097Z,24.85
2019-02-03T06:39:55.599Z,26.85
2019-02-03T06:40:59.055Z,25.17
2019-02-03T06:42:02.572Z,26.70
2019-02-03T06:43:06.016Z,34.05
2019-02-03T06:44:12.420Z,26.55
2019-02-03T06:45:23.197Z,24.30
2019-02-03T06:46:30.822Z,28.60
2019-02-03T06:47:34.325Z,27.73
2019-02-03T06:48:37.755Z,23.00
2019-02-03T06:49:41.217Z,26.10
2019-02-03T06:50:44.649Z,21.73
2019-02-03T06:51:48.148Z,25.35
2019-02-03T06:52:51.657Z,27.02
2019-02-03T06:53:55.089Z,26.33
2019-02-03T06:54:58.542Z,23.10
2019-02-03T06:56:02.495Z,24.05
2019-02-03T06:57:06.061Z,22.55
2019-02-03T06:58:09.562Z,25.27
2019-02-03T06:59:13.122Z,21.37
2019-02-03T07:00:17.124Z,23.47
2019-02-03T07:01:20.635Z,24.00
2019-02-03T07:02:24.159Z,22.98
2019-02-03T07:03:27.601Z,23.27
2019-02-03T07:04:31.147Z,22.20
2019-02-03T07:05:34.614Z,22.85
2019-02-03T07:06:38.117Z,21.42
2019-02-03T07:07:41.643Z,21.40
2019-02-03T07:08:45.072Z,22.93
2019-02-03T07:09:59.788Z,23.85
2019-02-03T07:10:53.974Z,25.60
2019-02-03T07:11:58.930Z,23.47
2019-02-03T07:13:02.426Z,19.98
2019-02-03T07:14:06.107Z,23.00
2019-02-03T07:15:10.891Z,21.85
2019-02-03T07:16:14.461Z,21.95
2019-02-03T07:17:18.140Z,21.42
2019-02-03T07:18:21.588Z,21.30
2019-02-03T07:19:25.036Z,20.05
2019-02-03T07:20:28.596Z,19.30
2019-02-03T07:21:32.159Z,19.73
2019-02-03T07:22:35.647Z,19.65
2019-02-03T07:23:39.162Z,20.10
2019-02-03T07:24:42.596Z,18.23
2019-02-03T07:25:46.368Z,20.52
2019-02-03T07:26:49.981Z,19.45
2019-02-03T07:27:53.521Z,22.10
2019-02-03T07:28:57.066Z,18.67
2019-02-03T07:30:00.621Z,20.95
2019-02-03T07:31:04.364Z,19.17
2019-02-03T07:32:08.053Z,19.25
2019-02-03T07:33:11.578Z,19.82
2019-02-03T07:34:15.076Z,20.12
2019-02-03T07:35:18.653Z,20.72
2019-02-03T07:36:22.263Z,21.97
2019-02-03T07:37:25.810Z,21.68
2019-02-03T07:38:29.236Z,24.77
2019-02-03T07:39:32.731Z,20.27
2019-02-03T07:40:36.510Z,21.50
2019-02-03T07:41:40.032Z,22.50
2019-02-03T07:42:43.688Z,19.42
2019-02-03T07:43:47.149Z,20.35
2019-02-03T07:44:50.655Z,20.27
2019-02-03T07:45:54.230Z,19.48
2019-02-03T07:46:58.574Z,19.77
2019-02-03T07:48:02.187Z,17.90
2019-02-03T07:49:05.881Z,15.50
2019-02-03T07:50:13.569Z,18.12
2019-02-03T07:51:17.076Z,16.73
2019-02-03T07:52:20.526Z,17.87
2019-02-03T07:53:23.990Z,21.80
2019-02-03T07:54:27.444Z,16.95
2019-02-03T07:55:31.140Z,18.17
2019-02-03T07:56:34.883Z,19.85
2019-02-03T07:57:38.524Z,17.07
2019-02-03T07:58:42.087Z,17.30
2019-02-03T07:59:45.645Z,15.60
2019-02-03T08:00:49.137Z,15.75
2019-02-03T08:01:52.651Z,20.77
2019-02-03T08:02:56.347Z,17.32
2019-02-03T08:03:59.885Z,17.40
2019-02-03T08:05:08.071Z,16.85
2019-02-03T08:06:11.513Z,16.27
2019-02-03T08:07:15.027Z,17.65
2019-02-03T08:08:18.469Z,17.80
2019-02-03T08:09:22.032Z,14.47
2019-02-03T08:10:29.762Z,14.93
2019-02-03T08:11:30.981Z,15.00
2019-02-03T08:12:34.497Z,15.98
2019-02-03T08:13:37.936Z,13.65
2019-02-03T08:14:41.402Z,18.02
2019-02-03T08:15:44.906Z,13.90
2019-02-03T08:16:48.347Z,16.35
2019-02-03T08:17:51.781Z,15.63
2019-02-03T08:18:55.336Z,16.12
2019-02-03T08:19:58.846Z,18.60
2019-02-03T08:21:02.268Z,17.70
2019-02-03T08:22:05.871Z,16.93
2019-02-03T08:23:09.370Z,16.65
2019-02-03T08:24:12.811Z,18.90
2019-02-03T08:25:17.479Z,16.67
2019-02-03T08:26:21.198Z,15.10
2019-02-03T08:27:24.638Z,17.27
2019-02-03T08:28:28.069Z,17.12
2019-02-03T08:29:31.507Z,15.10
2019-02-03T08:30:35.108Z,13.55
2019-02-03T08:31:38.600Z,15.10
2019-02-03T08:32:42.173Z,13.35
2019-02-03T08:33:45.755Z,15.00
2019-02-03T08:34:49.199Z,17.40
2019-02-03T08:35:52.716Z,19.87
2019-02-03T08:36:56.229Z,16.32
2019-02-03T08:37:59.678Z,14.13
2019-02-03T08:39:04.076Z,15.93
2019-02-03T08:40:16.582Z,17.20
2019-02-03T08:41:20.205Z,15.85
2019-02-03T08:42:23.915Z,14.00
2019-02-03T08:43:27.419Z,15.35
2019-02-03T08:44:31.052Z,14.68
2019-02-03T08:45:34.488Z,13.95
2019-02-03T08:46:37.943Z,18.67
2019-02-03T08:47:41.455Z,13.98
2019-02-03T08:48:44.829Z,12.43
2019-02-03T08:49:48.339Z,14.28
2019-02-03T08:50:51.775Z,13.32
2019-02-03T08:51:55.381Z,14.58
2019-02-03T08:52:58.830Z,15.25
2019-02-03T08:54:02.265Z,14.35
2019-02-03T08:55:08.442Z,15.68
2019-02-03T08:56:11.920Z,13.25
2019-02-03T08:57:15.631Z,14.50
2019-02-03T08:58:19.242Z,13.43
2019-02-03T08:59:22.631Z,11.83
2019-02-03T09:00:31.034Z,12.28
2019-02-03T09:01:34.472Z,10.65
2019-02-03T09:02:37.988Z,11.83
2019-02-03T09:03:41.444Z,12.70
2019-02-03T09:04:44.879Z,12.10
2019-02-03T09:05:48.434Z,12.50
2019-02-03T09:06:51.828Z,17.20
2019-02-03T09:07:55.551Z,21.02
2019-02-03T09:08:59.047Z,14.65
2019-02-03T09:10:02.537Z,18.48
2019-02-03T09:11:05.960Z,16.48
2019-02-03T09:12:09.457Z,12.55
2019-02-03T09:13:13.266Z,14.20
2019-02-03T09:14:16.716Z,69.80
2019-02-03T09:15:22.660Z,19.70
2019-02-03T09:16:26.168Z,11.53
2019-02-03T09:17:29.666Z,55.30
2019-02-03T09:18:34.951Z,14.40
2019-02-03T09:19:38.377Z,10.32
2019-02-03T09:20:41.942Z,9.78
2019-02-03T09:21:45.441Z,8.63
2019-02-03T09:22:48.968Z,9.88
2019-02-03T09:23:52.399Z,10.85
2019-02-03T09:24:55.822Z,8.85
2019-02-03T09:25:59.319Z,9.45
2019-02-03T09:27:02.741Z,10.32
2019-02-03T09:28:06.408Z,11.33
2019-02-03T09:29:10.203Z,9.53
2019-02-03T09:30:21.910Z,9.25
2019-02-03T09:31:25.474Z,12.68
2019-02-03T09:32:28.988Z,11.20
2019-02-03T09:33:32.534Z,12.70
2019-02-03T09:34:36.040Z,10.95
2019-02-03T09:35:39.553Z,9.43
2019-02-03T09:36:43.010Z,11.63
2019-02-03T09:37:46.687Z,9.23
2019-02-03T09:38:50.251Z,10.80
2019-02-03T09:39:53.934Z,12.20
2019-02-03T09:41:00.334Z,11.15
2019-02-03T09:42:02.707Z,10.15
2019-02-03T09:43:06.385Z,9.68
2019-02-03T09:44:10.125Z,13.60
2019-02-03T09:45:19.009Z,7.97
2019-02-03T09:46:22.802Z,8.75
2019-02-03T09:47:26.237Z,10.50
2019-02-03T09:48:29.666Z,11.22
2019-02-03T09:49:33.100Z,12.65
2019-02-03T09:50:36.545Z,9.63
2019-02-03T09:51:40.040Z,10.93
2019-02-03T09:52:43.896Z,10.10
2019-02-03T09:53:47.318Z,11.50
2019-02-03T09:54:50.749Z,12.58
2019-02-03T09:55:54.286Z,14.63
2019-02-03T09:56:57.768Z,10.90
2019-02-03T09:58:01.545Z,11.10
2019-02-03T09:59:05.227Z,14.70
2019-02-03T10:00:14.849Z,12.85
2019-02-03T10:01:18.556Z,13.10
2019-02-03T10:02:22.512Z,18.52
2019-02-03T10:03:25.965Z,33.18
2019-02-03T10:04:29.797Z,17.65
2019-02-03T10:05:33.280Z,11.80
2019-02-03T10:06:36.983Z,16.42
2019-02-03T10:07:40.568Z,11.90
2019-02-03T10:08:44.128Z,11.93
2019-02-03T10:09:47.832Z,14.78
2019-02-03T10:10:51.660Z,13.25
2019-02-03T10:11:55.160Z,15.23
2019-02-03T10:12:58.662Z,11.90
2019-02-03T10:14:02.192Z,16.80
2019-02-03T10:15:08.056Z,18.15
2019-02-03T10:16:11.862Z,17.32
2019-02-03T10:17:15.806Z,16.57
2019-02-03T10:18:19.594Z,11.60
2019-02-03T10:19:23.613Z,14.70
2019-02-03T10:20:27.368Z,14.07
2019-02-03T10:21:30.828Z,13.25
2019-02-03T10:22:34.394Z,11.40
2019-02-03T10:23:37.896Z,14.25
2019-02-03T10:24:42.558Z,12.68
2019-02-03T10:25:47.003Z,14.13
2019-02-03T10:26:50.525Z,10.18
2019-02-03T10:27:54.498Z,10.03
2019-02-03T10:28:57.953Z,12.80
2019-02-03T10:30:02.983Z,10.20
2019-02-03T10:31:06.548Z,11.35
2019-02-03T10:32:10.067Z,10.20
2019-02-03T10:33:13.910Z,10.88
2019-02-03T10:34:17.403Z,14.25
2019-02-03T10:35:23.904Z,10.28
2019-02-03T10:36:27.417Z,10.98
2019-02-03T10:37:31.055Z,12.88
2019-02-03T10:38:34.575Z,10.03
2019-02-03T10:39:37.999Z,13.38
2019-02-03T10:40:42.890Z,12.47
2019-02-03T10:41:46.387Z,10.75
2019-02-03T10:42:50.894Z,10.30
2019-02-03T10:43:56.435Z,13.30
2019-02-03T10:44:59.544Z,15.68
2019-02-03T10:46:03.056Z,15.13
2019-02-03T10:47:06.579Z,14.95
2019-02-03T10:48:10.098Z,12.55
2019-02-03T10:49:14.069Z,13.90
2019-02-03T10:50:31.597Z,13.83
2019-02-03T10:51:35.482Z,16.57
2019-02-03T10:52:39.011Z,11.95
2019-02-03T10:53:42.477Z,15.83
2019-02-03T10:54:45.960Z,14.55
2019-02-03T10:55:49.577Z,12.43
2019-02-03T10:56:53.015Z,12.45
2019-02-03T10:57:56.803Z,14.45
2019-02-03T10:59:00.312Z,13.30
2019-02-03T11:00:17.683Z,13.48
2019-02-03T11:01:10.841Z,17.27
2019-02-03T11:02:14.286Z,14.50
2019-02-03T11:03:17.810Z,14.65
2019-02-03T11:04:21.258Z,16.87
2019-02-03T11:05:30.731Z,15.28
2019-02-03T11:06:34.225Z,15.28
2019-02-03T11:07:38.092Z,14.43
2019-02-03T11:08:41.670Z,13.30
2019-02-03T11:09:45.182Z,10.40
2019-02-03T11:10:48.722Z,10.80
2019-02-03T11:11:52.331Z,11.75
2019-02-03T11:12:55.961Z,12.10
2019-02-03T11:13:59.429Z,11.73
2019-02-03T11:15:03.092Z,10.13
2019-02-03T11:16:06.664Z,13.40
2019-02-03T11:17:10.162Z,11.53
2019-02-03T11:18:13.887Z,12.05
2019-02-03T11:19:17.406Z,14.13
2019-02-03T11:20:31.811Z,15.25
2019-02-03T11:21:35.306Z,16.50
2019-02-03T11:22:39.191Z,13.48
2019-02-03T11:23:42.689Z,11.85
2019-02-03T11:24:46.151Z,15.55
2019-02-03T11:25:49.574Z,13.50
2019-02-03T11:26:53.067Z,10.50
2019-02-03T11:27:57.009Z,13.70
2019-02-03T11:29:00.461Z,16.80
2019-02-03T11:30:13.504Z,14.35
2019-02-03T11:31:17.033Z,14.53
2019-02-03T11:32:20.600Z,10.78
2019-02-03T11:33:24.201Z,14.73
2019-02-03T11:34:27.617Z,14.30
2019-02-03T11:35:32.304Z,15.00
2019-02-03T11:36:35.772Z,14.35
2019-02-03T11:37:39.402Z,15.10
2019-02-03T11:38:42.839Z,14.70
2019-02-03T11:39:46.356Z,15.40
2019-02-03T11:40:49.855Z,31.25
2019-02-03T11:41:53.254Z,12.45
2019-02-03T11:42:56.859Z,12.50
2019-02-03T11:44:00.256Z,15.15
2019-02-03T11:45:05.761Z,13.35
2019-02-03T11:46:09.213Z,14.78
2019-02-03T11:47:12.745Z,15.75
2019-02-03T11:48:18.214Z,15.25
2019-02-03T11:49:28.411Z,15.65
2019-02-03T11:50:37.825Z,17.05
2019-02-03T11:51:41.366Z,18.92
2019-02-03T11:52:45.203Z,16.35
2019-02-03T11:53:48.836Z,21.10
2019-02-03T11:54:52.391Z,18.15
2019-02-03T11:55:56.516Z,20.23
2019-02-03T11:57:03.110Z,17.32
2019-02-03T11:58:07.255Z,15.70
2019-02-03T11:59:11.210Z,16.95
2019-02-03T12:00:23.769Z,15.98
2019-02-03T12:01:27.492Z,15.15
2019-02-03T12:02:41.893Z,19.62
2019-02-03T12:03:43.266Z,17.27
2019-02-03T12:04:50.160Z,19.15
2019-02-03T12:05:54.138Z,15.78
2019-02-03T12:07:00.019Z,18.87
2019-02-03T12:08:10.636Z,17.15
2019-02-03T12:09:14.838Z,18.55
2019-02-03T12:10:24.442Z,18.90
2019-02-03T12:11:34.527Z,19.10
2019-02-03T12:12:38.604Z,21.02
2019-02-03T12:13:42.433Z,20.20
2019-02-03T12:14:48.976Z,21.42
2019-02-03T12:15:59.063Z,23.42
2019-02-03T12:17:10.751Z,22.35
2019-02-03T12:18:14.433Z,27.32
2019-02-03T12:19:18.201Z,21.57
2019-02-03T12:20:22.170Z,24.47
2019-02-03T12:21:30.125Z,26.33
2019-02-03T12:22:35.127Z,23.52
2019-02-03T12:23:46.079Z,24.10
2019-02-03T12:24:50.195Z,24.80
2019-02-03T12:25:57.406Z,23.15
2019-02-03T12:27:04.389Z,22.40
2019-02-03T12:28:14.201Z,24.52
2019-02-03T12:29:18.184Z,26.15
2019-02-03T12:30:29.268Z,21.77
2019-02-03T12:31:33.316Z,24.60
2019-02-03T12:32:43.791Z,24.20
2019-02-03T12:33:52.095Z,23.27
2019-02-03T12:34:57.856Z,25.43
2019-02-03T12:36:06.194Z,25.82
2019-02-03T12:37:13.356Z,25.70
2019-02-03T12:38:22.425Z,26.77
2019-02-03T12:39:29.949Z,27.07
2019-02-03T12:40:41.751Z,27.67
2019-02-03T12:41:51.627Z,27.32
2019-02-03T12:42:57.228Z,29.85
2019-02-03T12:44:00.801Z,33.10
2019-02-03T12:45:06.917Z,35.50
2019-02-03T12:46:10.482Z,36.73
2019-02-03T12:47:14.005Z,38.53
2019-02-03T12:48:17.792Z,34.63
2019-02-03T12:49:21.226Z,38.08
2019-02-03T12:50:24.819Z,32.38
2019-02-03T12:51:28.296Z,31.50
2019-02-03T12:52:31.767Z,31.30
2019-02-03T12:53:35.331Z,25.15
2019-02-03T12:54:38.925Z,28.77
2019-02-03T12:55:44.808Z,34.55
2019-02-03T12:56:47.724Z,35.43
2019-02-03T12:57:51.427Z,30.75
2019-02-03T12:58:55.036Z,30.62
2019-02-03T12:59:58.550Z,38.05
2019-02-03T13:01:02.037Z,28.87
2019-02-03T13:02:06.036Z,30.15
2019-02-03T13:03:09.622Z,35.00
2019-02-03T13:04:13.216Z,29.85
2019-02-03T13:05:21.303Z,28.30
2019-02-03T13:06:24.750Z,39.92
2019-02-03T13:07:28.254Z,39.33
2019-02-03T13:08:31.810Z,29.77
2019-02-03T13:09:35.250Z,40.05
2019-02-03T13:10:39.454Z,26.15
2019-02-03T13:11:42.977Z,25.45
2019-02-03T13:12:46.491Z,28.05
2019-02-03T13:13:50.088Z,31.07
2019-02-03T13:14:53.608Z,29.77
2019-02-03T13:15:58.007Z,31.55
2019-02-03T13:17:01.747Z,39.90
2019-02-03T13:18:06.711Z,35.95
2019-02-03T13:19:10.571Z,39.15
2019-02-03T13:20:19.390Z,33.53
2019-02-03T13:21:22.928Z,29.07
2019-02-03T13:22:26.460Z,36.13
2019-02-03T13:23:30.100Z,34.53
2019-02-03T13:24:33.607Z,33.00
2019-02-03T13:25:37.184Z,36.98
2019-02-03T13:26:40.644Z,38.28
2019-02-03T13:27:44.241Z,33.30
2019-02-03T13:28:47.850Z,35.83
2019-02-03T13:29:51.363Z,43.28
2019-02-03T13:30:54.864Z,39.20
2019-02-03T13:32:10.198Z,45.67
2019-02-03T13:33:03.665Z,42.10
2019-02-03T13:34:07.186Z,40.95
2019-02-03T13:35:10.974Z,39.48
2019-02-03T13:36:14.861Z,46.23
2019-02-03T13:37:18.353Z,39.73
2019-02-03T13:38:21.945Z,45.00
2019-02-03T13:39:25.454Z,42.48
2019-02-03T13:40:29.035Z,39.55
2019-02-03T13:41:32.473Z,48.83
2019-02-03T13:42:37.731Z,41.18
2019-02-03T13:43:41.312Z,51.55
2019-02-03T13:44:44.879Z,44.10